Terminal Aerodrome Forecast
Issued by NWS Buffalo, NY

Home | Current Version | Previous Version | Text Only | Print | Product List | Glossary On
Versions: 1 2 3 4 5 6 7 8 9 10 11 12 13 14 15 16 17 18 19 20 21 22 23 24 25
000
FTUS41 KBUF 301100
TAFART
TAF
KART 301120Z 3012/3112 18007KT P6SM BKN150
     FM301500 19014KT P6SM SCT150
     FM310200 19012KT P6SM BKN120
     FM310400 19011KT P6SM VCSH BKN070
     FM310600 20010KT P6SM -SHRA OVC050
     FM310900 19010KT 4SM SHRA OVC045=

USA.gov is the U.S. government's official web portal to all federal, state and local government web resources and services.